Saudade — FAA3845 — position and weather

sailwx.info

Track history (hours):
 
Tides and Currents Weather Stations Pressure Air Temp Water Temp Dewpoint Dewpoint Depression Visibility Wind Speed Wind Dir Waves Ship Positions

Saudade

Last reported at 2017-Jun-17 12:31 UTC. Time now 2017-Jun-22 22:25 UTC.
Position N 38°32' W 028°38'.

Type: Pleasure craft. MMSI: 227116860.

Date/timePositionNaut miles runAvg speedWind from/ knotsBaromVisibWave heightAir tempDewpointWater temp
2017-Jun-17 12:31N 38°32' W 028°38'0 0.4
2017-Jun-17 12:30N 38°32' W 028°38'0 0.0
2017-Jun-15 12:34N 38°32' W 028°38'0 0.0
2017-Jun-15 12:28N 38°32' W 028°38'0 0.0
2017-Jun-15 11:58N 38°32' W 028°38'0 0.0
2017-Jun-15 11:28N 38°32' W 028°38'0 0.8
2017-Jun-15 11:00N 38°32' W 028°37'2 3.4
2017-Jun-15 10:30N 38°31' W 028°38'3 6.9
2017-Jun-15 10:00N 38°30' W 028°42'4 7.1
2017-Jun-15 09:30N 38°30' W 028°47'3 6.9
2017-Jun-15 09:00N 38°30' W 028°51'4 7.3
2017-Jun-15 08:31N 38°30' W 028°56'3 5.2
2017-Jun-15 07:58N 38°29' W 028°59'4 5.9
2017-Jun-15 07:17N 38°28' W 029°05'2 6.1
2017-Jun-15 07:00N 38°28' W 029°07'3 6.3
2017-Jun-15 06:30N 38°28' W 029°11'3 5.8
2017-Jun-15 05:59N 38°28' W 029°15'3 5.7
2017-Jun-15 05:30N 38°27' W 029°18'3 6.0
2017-Jun-15 05:00N 38°27' W 029°22'4 7.2
2017-Jun-15 04:29N 38°26' W 029°27'3 5.7
2017-Jun-15 04:00N 38°26' W 029°30'3 5.9
2017-Jun-15 03:28N 38°26' W 029°34'3 5.9
2017-Jun-15 03:00N 38°25' W 029°37'3 5.6
2017-Jun-15 02:29N 38°24' W 029°41'3 5.9
2017-Jun-15 01:54N 38°24' W 029°45'3 5.6
2017-Jun-15 01:25N 38°24' W 029°49'  
Track history (hours):
 
Tides and Currents Weather Stations Pressure Air Temp Water Temp Dewpoint Dewpoint Depression Visibility Wind Speed Wind Dir Waves Ship Positions

Saudade

Last reported at 2017-Jun-17 12:31 UTC. Time now 2017-Jun-22 22:25 UTC.
Position N 38°32' W 028°38'.

Type: Pleasure craft. MMSI: 227116860.

Date/timePositionNaut miles runAvg speedWind from/ knotsBaromVisibWave heightAir tempDewpointWater temp
2017-Jun-17 12:31N 38°32' W 028°38'0 0.4
2017-Jun-17 12:30N 38°32' W 028°38'0 0.0
2017-Jun-15 12:34N 38°32' W 028°38'0 0.0
2017-Jun-15 12:28N 38°32' W 028°38'0 0.0
2017-Jun-15 11:58N 38°32' W 028°38'0 0.0
2017-Jun-15 11:28N 38°32' W 028°38'0 0.8
2017-Jun-15 11:00N 38°32' W 028°37'2 3.4
2017-Jun-15 10:30N 38°31' W 028°38'3 6.9
2017-Jun-15 10:00N 38°30' W 028°42'4 7.1
2017-Jun-15 09:30N 38°30' W 028°47'3 6.9
2017-Jun-15 09:00N 38°30' W 028°51'4 7.3
2017-Jun-15 08:31N 38°30' W 028°56'3 5.2
2017-Jun-15 07:58N 38°29' W 028°59'4 5.9
2017-Jun-15 07:17N 38°28' W 029°05'2 6.1
2017-Jun-15 07:00N 38°28' W 029°07'3 6.3
2017-Jun-15 06:30N 38°28' W 029°11'3 5.8
2017-Jun-15 05:59N 38°28' W 029°15'3 5.7
2017-Jun-15 05:30N 38°27' W 029°18'3 6.0
2017-Jun-15 05:00N 38°27' W 029°22'4 7.2
2017-Jun-15 04:29N 38°26' W 029°27'3 5.7
2017-Jun-15 04:00N 38°26' W 029°30'3 5.9
2017-Jun-15 03:28N 38°26' W 029°34'3 5.9
2017-Jun-15 03:00N 38°25' W 029°37'3 5.6
2017-Jun-15 02:29N 38°24' W 029°41'3 5.9
2017-Jun-15 01:54N 38°24' W 029°45'3 5.6
2017-Jun-15 01:25N 38°24' W 029°49'  

Dump ship's entire track history